Time;durP1;ratioP1;P1;durP2;ratioP2;P2;SDS_P1;SDS_P2;PMS_P1;PMS_P2;Temp;Humidity;BMP_temperature;BMP_pressure;BME280_temperature;BME280_humidity;BME280_pressure;Samples;Min_cycle;Max_cycle;Signal;HPM_P1;HPM_P2
2023/08/14 00:00:45;;;;;;;7.32;4.18;;;;;;;;;;5053374;28;20029;-71
2023/08/14 00:03:12;;;;;;;5.00;3.42;;;;;;;;;;5053470;28;20021;-72
2023/08/14 00:05:38;;;;;;;5.70;3.50;;;;;;;;;;5053174;28;20025;-72
2023/08/14 00:08:04;;;;;;;6.53;3.83;;;;;;;;;;5051236;28;20029;-71
2023/08/14 00:10:30;;;;;;;9.52;4.10;;;;;;;;;;5053138;28;20539;-71
2023/08/14 00:12:56;;;;;;;8.45;3.90;;;;;;;;;;5053345;28;20032;-71
2023/08/14 00:15:22;;;;;;;4.40;3.75;;;;;;;;;;5052954;28;20439;-72
2023/08/14 00:17:48;;;;;;;6.78;3.72;;;;;;;;;;5052673;28;20029;-71
2023/08/14 00:20:14;;;;;;;4.13;3.15;;;;;;;;;;5053211;28;20074;-72
2023/08/14 00:22:40;;;;;;;6.85;3.75;;;;;;;;;;5053138;28;20070;-72
2023/08/14 00:25:06;;;;;;;5.75;3.58;;;;;;;;;;5052915;28;20429;-71
2023/08/14 00:27:32;;;;;;;4.07;3.70;;;;;;;;;;5051681;28;20028;-71
2023/08/14 00:29:58;;;;;;;5.90;3.88;;;;;;;;;;5051757;28;20499;-71
2023/08/14 00:32:24;;;;;;;5.05;3.58;;;;;;;;;;5052761;28;20028;-72
2023/08/14 00:34:50;;;;;;;5.88;3.70;;;;;;;;;;5051448;28;20024;-71
2023/08/14 00:37:16;;;;;;;5.22;3.95;;;;;;;;;;5052224;28;20032;-72
2023/08/14 00:39:42;;;;;;;5.88;3.47;;;;;;;;;;5053072;28;20049;-71
2023/08/14 00:42:08;;;;;;;3.75;3.22;;;;;;;;;;5052968;28;20053;-71
2023/08/14 00:44:34;;;;;;;4.45;3.47;;;;;;;;;;5050329;28;20507;-71
2023/08/14 00:47:00;;;;;;;5.28;4.07;;;;;;;;;;5051949;28;20124;-71
2023/08/14 00:49:26;;;;;;;6.00;3.88;;;;;;;;;;5052254;28;20028;-71
2023/08/14 00:51:53;;;;;;;11.40;3.85;;;;;;;;;;5051150;28;20374;-72
2023/08/14 00:54:19;;;;;;;6.00;3.83;;;;;;;;;;5051861;28;20503;-71
2023/08/14 00:56:45;;;;;;;4.95;3.33;;;;;;;;;;5052470;28;20021;-71
2023/08/14 00:59:11;;;;;;;4.40;3.80;;;;;;;;;;5050277;28;20045;-71
2023/08/14 01:01:37;;;;;;;5.20;3.78;;;;;;;;;;5052318;28;20050;-71
2023/08/14 01:04:05;;;;;;;4.22;3.72;;;;;;;;;;5052213;28;20064;-72
2023/08/14 01:06:31;;;;;;;3.97;3.58;;;;;;;;;;5052448;28;20025;-73
2023/08/14 01:08:57;;;;;;;6.90;3.85;;;;;;;;;;5051669;28;20033;-72
2023/08/14 01:11:34;;;;;;;7.00;3.20;;;;;;;;;;5052245;28;20036;-72
2023/08/14 01:14:03;;;;;;;5.72;3.50;;;;;;;;;;5052074;28;20028;-73
2023/08/14 01:16:31;;;;;;;5.50;3.88;;;;;;;;;;5051985;28;20033;-71
2023/08/14 01:18:59;;;;;;;4.18;3.72;;;;;;;;;;5051547;28;20392;-71
2023/08/14 01:21:37;;;;;;;5.63;3.47;;;;;;;;;;5052040;28;20131;-72
2023/08/14 01:24:15;;;;;;;4.32;3.97;;;;;;;;;;5051950;28;20021;-71
2023/08/14 01:26:41;;;;;;;9.52;3.80;;;;;;;;;;5051713;28;20036;-72
2023/08/14 01:29:07;;;;;;;4.97;3.95;;;;;;;;;;5050558;28;20392;-71
2023/08/14 01:31:33;;;;;;;6.15;3.90;;;;;;;;;;5051444;28;20025;-71
2023/08/14 01:33:59;;;;;;;4.50;3.55;;;;;;;;;;5051668;28;20032;-71
2023/08/14 01:36:33;;;;;;;6.30;3.88;;;;;;;;;;5051652;28;20571;-71
2023/08/14 01:38:59;;;;;;;4.22;3.40;;;;;;;;;;5051365;28;20025;-72
2023/08/14 01:41:28;;;;;;;6.80;4.35;;;;;;;;;;5051436;28;20028;-73
2023/08/14 01:43:57;;;;;;;5.45;3.78;;;;;;;;;;5051409;28;20040;-72
2023/08/14 01:46:24;;;;;;;4.32;3.60;;;;;;;;;;5051288;28;20017;-72
2023/08/14 01:48:51;;;;;;;5.53;3.47;;;;;;;;;;5050836;28;20098;-72
2023/08/14 01:51:18;;;;;;;7.25;4.25;;;;;;;;;;5051188;28;20025;-72
2023/08/14 01:53:47;;;;;;;7.88;3.47;;;;;;;;;;5050547;28;20024;-72
2023/08/14 01:56:13;;;;;;;4.43;3.55;;;;;;;;;;5051223;28;20167;-72
2023/08/14 01:58:39;;;;;;;6.53;3.90;;;;;;;;;;5050645;28;20060;-72
2023/08/14 02:01:05;;;;;;;4.57;3.60;;;;;;;;;;5050638;28;20036;-72
2023/08/14 02:03:31;;;;;;;4.20;3.38;;;;;;;;;;5051114;28;20389;-72
2023/08/14 02:05:57;;;;;;;5.65;3.70;;;;;;;;;;5049742;28;20025;-72
2023/08/14 02:08:23;;;;;;;5.10;3.75;;;;;;;;;;5049227;28;20035;-72
2023/08/14 02:10:49;;;;;;;4.00;3.58;;;;;;;;;;5051108;28;20134;-72
2023/08/14 02:13:15;;;;;;;6.47;3.53;;;;;;;;;;5050739;28;20473;-72
2023/08/14 02:15:41;;;;;;;4.10;3.70;;;;;;;;;;5073001;22;20045;-74
2023/08/14 02:18:07;;;;;;;4.63;3.80;;;;;;;;;;5050266;28;20025;-74
2023/08/14 02:20:33;;;;;;;4.05;3.05;;;;;;;;;;5050813;28;20089;-74
2023/08/14 02:22:59;;;;;;;4.28;3.45;;;;;;;;;;5050569;28;20036;-74
2023/08/14 02:25:25;;;;;;;5.55;4.00;;;;;;;;;;5050534;28;20400;-74
2023/08/14 02:27:51;;;;;;;5.55;3.35;;;;;;;;;;5049942;28;20065;-74
2023/08/14 02:30:17;;;;;;;4.72;3.50;;;;;;;;;;5050786;28;20025;-74
2023/08/14 02:32:43;;;;;;;3.92;3.53;;;;;;;;;;5050424;28;20112;-74
2023/08/14 02:35:09;;;;;;;3.78;3.47;;;;;;;;;;5050621;28;20053;-74
2023/08/14 02:37:35;;;;;;;3.83;3.40;;;;;;;;;;5048788;28;20507;-74
2023/08/14 02:40:01;;;;;;;4.10;3.70;;;;;;;;;;5051579;28;20036;-74
2023/08/14 02:42:27;;;;;;;3.60;3.28;;;;;;;;;;5054999;28;20033;-74
2023/08/14 02:44:53;;;;;;;4.53;3.55;;;;;;;;;;5054187;28;20047;-74
2023/08/14 02:47:19;;;;;;;3.60;3.30;;;;;;;;;;5050332;28;20519;-74
2023/08/14 02:49:45;;;;;;;3.55;3.17;;;;;;;;;;5049386;28;20036;-74
2023/08/14 02:52:11;;;;;;;3.47;3.17;;;;;;;;;;5050313;28;20029;-74
2023/08/14 02:54:37;;;;;;;8.95;3.35;;;;;;;;;;5049819;28;20021;-74
2023/08/14 02:57:03;;;;;;;5.35;3.50;;;;;;;;;;5049015;28;20013;-74
2023/08/14 02:59:29;;;;;;;5.20;3.88;;;;;;;;;;5050332;28;20135;-74
2023/08/14 03:01:55;;;;;;;16.00;4.75;;;;;;;;;;5051152;28;20036;-74
2023/08/14 03:04:21;;;;;;;16.88;4.07;;;;;;;;;;5050679;28;20040;-74
2023/08/14 03:06:47;;;;;;;7.35;4.03;;;;;;;;;;5051597;28;20075;-74
2023/08/14 03:09:13;;;;;;;10.35;6.63;;;;;;;;;;5052882;28;20079;-74
2023/08/14 03:11:39;;;;;;;5.72;4.32;;;;;;;;;;5054353;28;20032;-74
2023/08/14 03:14:06;;;;;;;20.63;11.90;;;;;;;;;;5054766;28;20036;-74
2023/08/14 03:16:32;;;;;;;7.13;4.30;;;;;;;;;;5054335;28;20056;-74
2023/08/14 03:18:58;;;;;;;6.45;4.28;;;;;;;;;;5053996;28;20021;-74
2023/08/14 03:21:24;;;;;;;6.53;3.97;;;;;;;;;;5054444;28;20086;-74
2023/08/14 03:23:50;;;;;;;9.20;6.18;;;;;;;;;;5054250;28;20456;-74
2023/08/14 03:26:16;;;;;;;5.55;3.80;;;;;;;;;;5057046;28;20448;-74
2023/08/14 03:28:42;;;;;;;7.20;3.60;;;;;;;;;;5063548;28;20508;-74
2023/08/14 03:31:08;;;;;;;4.55;3.50;;;;;;;;;;5064178;28;20017;-75
2023/08/14 03:33:34;;;;;;;4.68;3.97;;;;;;;;;;5062932;28;20455;-73
2023/08/14 03:36:00;;;;;;;4.10;3.58;;;;;;;;;;5055317;28;20025;-74
2023/08/14 03:38:26;;;;;;;4.38;3.10;;;;;;;;;;5051699;28;20067;-74
2023/08/14 03:40:52;;;;;;;4.57;3.00;;;;;;;;;;5053815;28;20025;-74
2023/08/14 03:43:18;;;;;;;6.65;3.10;;;;;;;;;;5053874;28;20424;-74
2023/08/14 03:45:44;;;;;;;5.25;3.05;;;;;;;;;;5053659;28;20392;-74
2023/08/14 03:48:10;;;;;;;6.35;3.22;;;;;;;;;;5052966;28;20025;-74
2023/08/14 03:50:36;;;;;;;4.45;3.28;;;;;;;;;;5052414;28;20065;-74
2023/08/14 03:53:02;;;;;;;5.78;3.42;;;;;;;;;;5053450;28;20374;-74
2023/08/14 03:55:28;;;;;;;3.35;3.05;;;;;;;;;;5053690;28;20033;-73
2023/08/14 03:57:56;;;;;;;8.43;4.95;;;;;;;;;;5053008;28;20025;-74
2023/08/14 04:00:22;;;;;;;5.95;3.78;;;;;;;;;;5053831;28;20061;-74
2023/08/14 04:02:48;;;;;;;5.45;3.65;;;;;;;;;;5053792;28;20033;-74
2023/08/14 04:05:14;;;;;;;6.63;4.20;;;;;;;;;;5053647;28;20128;-74
2023/08/14 04:07:40;;;;;;;7.78;4.05;;;;;;;;;;5053253;28;20021;-74
2023/08/14 04:10:07;;;;;;;7.47;3.95;;;;;;;;;;5053437;28;20025;-75
2023/08/14 04:12:33;;;;;;;4.60;3.60;;;;;;;;;;5052204;28;20025;-74
2023/08/14 04:15:12;;;;;;;4.53;3.72;;;;;;;;;;5053395;28;20021;-75
2023/08/14 04:17:38;;;;;;;7.90;3.47;;;;;;;;;;5052958;28;20024;-74
2023/08/14 04:20:05;;;;;;;5.28;3.50;;;;;;;;;;5052415;28;20019;-74
2023/08/14 04:22:31;;;;;;;3.58;3.28;;;;;;;;;;5053320;28;20040;-74
2023/08/14 04:24:57;;;;;;;4.57;3.20;;;;;;;;;;5053925;28;20028;-74
2023/08/14 04:27:23;;;;;;;3.90;3.28;;;;;;;;;;5053108;28;20181;-74
2023/08/14 04:29:49;;;;;;;6.32;3.60;;;;;;;;;;5053197;28;20029;-74
2023/08/14 04:32:15;;;;;;;5.00;3.35;;;;;;;;;;5053157;28;20056;-74
2023/08/14 04:34:41;;;;;;;10.00;3.58;;;;;;;;;;5053271;28;20024;-74
2023/08/14 04:37:07;;;;;;;5.25;3.15;;;;;;;;;;5052829;28;20041;-74
2023/08/14 04:39:33;;;;;;;8.30;3.55;;;;;;;;;;5051863;28;20025;-74
2023/08/14 04:41:59;;;;;;;4.40;3.20;;;;;;;;;;5053885;28;20088;-74
2023/08/14 04:44:25;;;;;;;4.50;3.47;;;;;;;;;;5054360;28;20067;-74
2023/08/14 04:46:51;;;;;;;4.72;3.65;;;;;;;;;;5054151;28;20057;-74
2023/08/14 04:49:17;;;;;;;4.32;3.33;;;;;;;;;;5056792;28;20025;-75
2023/08/14 04:51:43;;;;;;;10.40;4.32;;;;;;;;;;5060085;28;20051;-75
2023/08/14 04:54:09;;;;;;;4.80;3.00;;;;;;;;;;5061454;28;20473;-75
2023/08/14 04:56:35;;;;;;;5.15;3.40;;;;;;;;;;5061073;28;20400;-74
2023/08/14 04:59:01;;;;;;;5.00;3.70;;;;;;;;;;5064554;28;20488;-74
2023/08/14 05:01:27;;;;;;;6.40;3.55;;;;;;;;;;5069896;28;20025;-74
2023/08/14 05:03:53;;;;;;;6.78;3.10;;;;;;;;;;5069165;28;20041;-75
2023/08/14 05:06:19;;;;;;;7.55;3.42;;;;;;;;;;5071524;28;20036;-74
2023/08/14 05:08:45;;;;;;;7.57;3.58;;;;;;;;;;5072294;28;20025;-74
2023/08/14 05:11:11;;;;;;;4.95;3.40;;;;;;;;;;5071957;28;20036;-75
2023/08/14 05:13:39;;;;;;;5.72;2.85;;;;;;;;;;5069615;28;20025;-74
2023/08/14 05:16:06;;;;;;;3.13;2.83;;;;;;;;;;5059717;28;20021;-75
2023/08/14 05:18:32;;;;;;;4.07;3.03;;;;;;;;;;5051251;28;20028;-74
2023/08/14 05:20:58;;;;;;;6.82;2.80;;;;;;;;;;5052131;28;20036;-75
2023/08/14 05:23:24;;;;;;;3.33;2.80;;;;;;;;;;5052119;28;20025;-74
2023/08/14 05:25:50;;;;;;;4.32;2.85;;;;;;;;;;5050849;28;20369;-74
2023/08/14 05:28:16;;;;;;;6.40;3.72;;;;;;;;;;5050586;28;20381;-75
2023/08/14 05:30:43;;;;;;;4.57;3.13;;;;;;;;;;5052783;28;20033;-74
2023/08/14 05:33:09;;;;;;;7.03;3.20;;;;;;;;;;5053468;28;20115;-73
2023/08/14 05:35:35;;;;;;;3.63;2.78;;;;;;;;;;5052172;28;20124;-74
2023/08/14 05:38:01;;;;;;;5.53;2.88;;;;;;;;;;5051212;28;20025;-74
2023/08/14 05:40:27;;;;;;;5.72;3.08;;;;;;;;;;5051898;28;20439;-74
2023/08/14 05:43:06;;;;;;;4.95;3.30;;;;;;;;;;5050449;28;20049;-74
2023/08/14 05:45:35;;;;;;;5.85;3.28;;;;;;;;;;5051410;28;20021;-74
2023/08/14 05:48:02;;;;;;;4.07;2.78;;;;;;;;;;5049656;28;20025;-73
2023/08/14 05:50:28;;;;;;;6.07;3.00;;;;;;;;;;5051585;28;20086;-74
2023/08/14 05:52:59;;;;;;;4.95;2.60;;;;;;;;;;5051584;28;20113;-74
2023/08/14 05:55:24;;;;;;;;;;;;;;;;;;5052167;28;20044;-74
2023/08/14 05:57:51;;;;;;;5.22;3.50;;;;;;;;;;5050951;28;20368;-74
2023/08/14 06:00:17;;;;;;;6.93;3.10;;;;;;;;;;5057730;28;20029;-74
2023/08/14 06:02:44;;;;;;;4.68;3.10;;;;;;;;;;5058471;28;20025;-74
2023/08/14 06:05:10;;;;;;;5.53;3.05;;;;;;;;;;5060295;28;20029;-74
2023/08/14 06:07:36;;;;;;;4.47;2.50;;;;;;;;;;5056212;28;20037;-76
2023/08/14 06:10:06;;;;;;;7.28;2.88;;;;;;;;;;5051337;28;20021;-74
2023/08/14 06:12:32;;;;;;;7.20;2.38;;;;;;;;;;5051326;28;20093;-75
2023/08/14 06:14:58;;;;;;;6.07;2.90;;;;;;;;;;5050980;28;20033;-74
2023/08/14 06:17:25;;;;;;;5.60;3.08;;;;;;;;;;5050551;28;20387;-75
2023/08/14 06:19:50;;;;;;;5.63;3.10;;;31.90;47.20;;;;;;5049894;28;20032;-74
2023/08/14 06:22:17;;;;;;;4.88;2.50;;;31.30;47.50;;;;;;5051113;28;20025;-75
2023/08/14 06:24:43;;;;;;;5.45;2.72;;;31.50;46.60;;;;;;5050925;28;20028;-75
2023/08/14 06:27:08;;;;;;;6.68;2.35;;;32.00;46.30;;;;;;5050352;28;20073;-75
2023/08/14 06:29:34;;;;;;;5.95;2.60;;;32.20;46.40;;;;;;5050884;28;20167;-73
2023/08/14 06:32:00;;;;;;;5.25;2.78;;;32.70;44.70;;;;;;5050770;28;20029;-75
2023/08/14 06:34:26;;;;;;;5.97;2.30;;;33.80;43.20;;;;;;5049335;28;20023;-75
2023/08/14 06:36:52;;;;;;;6.75;2.47;;;34.20;41.40;;;;;;5050764;28;20047;-74
2023/08/14 06:39:18;;;;;;;6.43;2.80;;;34.30;41.70;;;;;;5050485;28;20388;-75
2023/08/14 06:41:43;;;;;;;3.63;2.30;;;34.40;41.30;;;;;;5050966;28;20031;-75
2023/08/14 06:44:09;;;;;;;4.97;2.63;;;34.50;40.70;;;;;;5053564;28;20028;-74
2023/08/14 06:46:35;;;;;;;3.25;2.33;;;35.20;40.00;;;;;;5053628;28;20443;-75
2023/08/14 06:49:01;;;;;;;2.90;1.85;;;35.80;38.10;;;;;;5054543;28;20489;-75
2023/08/14 06:51:27;;;;;;;6.43;2.63;;;;;;;;;;5054788;28;20075;-75
2023/08/14 06:53:53;;;;;;;4.28;2.40;;;;;;;;;;5055022;28;20029;-75
2023/08/14 06:56:19;;;;;;;4.93;2.08;;;34.10;42.10;;;;;;5054588;28;20029;-74
2023/08/14 06:58:44;;;;;;;4.13;1.98;;;34.50;39.90;;;;;;5054335;28;20630;-75
2023/08/14 07:01:10;;;;;;;2.47;2.03;;;34.30;40.40;;;;;;5054851;28;20020;-76
2023/08/14 07:03:36;;;;;;;5.90;2.10;;;34.40;39.10;;;;;;5054746;28;20025;-75
2023/08/14 07:06:02;;;;;;;6.97;2.00;;;34.60;39.70;;;;;;5054948;28;20060;-75
2023/08/14 07:08:28;;;;;;;7.00;2.60;;;34.60;38.80;;;;;;5054163;28;20029;-75
2023/08/14 07:10:54;;;;;;;5.10;2.45;;;;;;;;;;5054684;28;20028;-74
2023/08/14 07:13:21;;;;;;;4.55;2.03;;;33.70;40.60;;;;;;5054733;28;20388;-74
2023/08/14 07:15:47;;;;;;;3.90;2.53;;;32.50;42.70;;;;;;5054447;28;20316;-74
2023/08/14 07:18:18;;;;;;;7.32;3.08;;;33.20;41.80;;;;;;5054235;28;20029;-75
2023/08/14 07:20:45;;;;;;;;;;;33.20;41.00;;;;;;5055738;28;20033;-75
2023/08/14 07:23:12;;;;;;;6.97;2.10;;;;;;;;;;5055013;28;19975;-73
2023/08/14 07:25:38;;;;;;;3.95;2.10;;;33.10;40.50;;;;;;5055873;28;20036;-74
2023/08/14 07:28:04;;;;;;;2.95;1.80;;;32.40;41.50;;;;;;5052493;28;20075;-73
2023/08/14 07:30:30;;;;;;;4.65;2.25;;;33.50;40.50;;;;;;5054026;28;20037;-74
2023/08/14 07:32:56;;;;;;;4.13;1.98;;;33.70;39.30;;;;;;5052710;28;20040;-73
2023/08/14 07:35:22;;;;;;;2.90;2.17;;;33.50;39.90;;;;;;5053949;28;20031;-73
2023/08/14 07:37:47;;;;;;;3.28;2.20;;;34.00;38.70;;;;;;5052123;28;20753;-74
2023/08/14 07:40:13;;;;;;;3.55;1.90;;;34.20;38.70;;;;;;5054065;28;20025;-74
2023/08/14 07:42:38;;;;;;;6.13;2.03;;;34.10;39.00;;;;;;5054147;28;20064;-74
2023/08/14 07:45:05;;;;;;;1.95;1.80;;;33.60;40.00;;;;;;5054014;28;20025;-73
2023/08/14 07:47:31;;;;;;;4.72;2.00;;;;;;;;;;5053169;28;20032;-74
2023/08/14 07:49:56;;;;;;;3.22;2.22;;;32.80;41.80;;;;;;5054823;28;20438;-75
2023/08/14 07:52:24;;;;;;;4.22;2.53;;;33.00;41.80;;;;;;5054001;28;20044;-75
2023/08/14 07:54:49;;;;;;;7.20;2.70;;;33.60;41.10;;;;;;5055144;28;20490;-75
2023/08/14 07:57:15;;;;;;;3.10;2.03;;;34.50;39.70;;;;;;5052939;28;20052;-75
2023/08/14 07:59:41;;;;;;;4.07;2.33;;;34.90;39.00;;;;;;5053689;28;20106;-75
2023/08/14 08:02:06;;;;;;;24.50;4.60;;;34.90;38.10;;;;;;5053699;28;20108;-75
2023/08/14 08:04:36;;;;;;;6.10;2.42;;;35.30;38.40;;;;;;5053533;28;20025;-74
2023/08/14 08:07:04;;;;;;;3.85;2.05;;;34.80;38.60;;;;;;5053210;28;20122;-73
2023/08/14 08:09:30;;;;;;;2.72;2.50;;;;;;;;;;5053205;28;20071;-75
2023/08/14 08:11:57;;;;;;;3.10;2.28;;;35.40;38.60;;;;;;5053300;28;20391;-75
2023/08/14 08:14:23;;;;;;;6.38;2.45;;;35.30;38.30;;;;;;5053711;28;20514;-75
2023/08/14 08:16:49;;;;;;;4.93;2.70;;;34.20;40.30;;;;;;5053956;28;20037;-75
2023/08/14 08:19:15;;;;;;;6.97;2.60;;;33.80;41.70;;;;;;5052969;28;20028;-75
2023/08/14 08:21:41;;;;;;;3.33;2.70;;;33.90;41.40;;;;;;5053479;28;20119;-75
2023/08/14 08:24:08;;;;;;;2.60;2.40;;;34.00;41.70;;;;;;5053045;28;20025;-75
2023/08/14 08:26:34;;;;;;;3.97;2.33;;;34.40;41.10;;;;;;5051860;28;20033;-75
2023/08/14 08:28:59;;;;;;;4.18;2.75;;;35.00;40.30;;;;;;5052865;28;20028;-75
2023/08/14 08:31:25;;;;;;;3.50;2.63;;;34.50;40.90;;;;;;5053741;28;20100;-75
2023/08/14 08:33:51;;;;;;;6.30;3.35;;;34.30;41.60;;;;;;5058188;28;20032;-75
2023/08/14 08:36:17;;;;;;;7.18;2.55;;;;;;;;;;5058707;28;20021;-75
2023/08/14 08:38:44;;;;;;;6.18;3.20;;;;;;;;;;5059759;28;20017;-75
2023/08/14 08:41:24;;;;;;;4.30;3.10;;;34.60;41.90;;;;;;5055925;28;20045;-75
2023/08/14 08:44:13;;;;;;;3.07;2.70;;;34.90;40.20;;;;;;5052911;28;20472;-74
2023/08/14 08:46:47;;;;;;;4.82;2.95;;;34.30;42.30;;;;;;5043760;28;20268;-75
2023/08/14 08:49:14;;;;;;;6.53;3.17;;;33.80;42.80;;;;;;5052182;28;20052;-75
2023/08/14 08:51:41;;;;;;;4.25;2.80;;;34.10;42.60;;;;;;5053115;28;20025;-75
2023/08/14 08:54:08;;;;;;;6.35;3.35;;;34.40;42.30;;;;;;5051654;28;20622;-75
2023/08/14 08:56:34;;;;;;;4.18;3.30;;;34.80;41.80;;;;;;5052467;28;20508;-74
2023/08/14 08:59:00;;;;;;;6.25;3.40;;;34.30;42.40;;;;;;5051122;28;20017;-75
2023/08/14 09:01:26;;;;;;;5.00;3.17;;;34.50;42.40;;;;;;5052829;28;20029;-75
2023/08/14 09:03:52;;;;;;;6.32;3.05;;;34.00;43.00;;;;;;5052738;28;20032;-75
2023/08/14 09:06:17;;;;;;;7.35;3.38;;;33.40;44.10;;;;;;5051887;28;20037;-75
2023/08/14 09:08:43;;;;;;;4.78;2.88;;;33.80;43.70;;;;;;5052124;28;20396;-74
2023/08/14 09:11:09;;;;;;;6.68;3.63;;;33.80;43.80;;;;;;5052561;28;20562;-74
2023/08/14 09:13:34;;;;;;;3.95;3.10;;;33.90;44.20;;;;;;5052690;28;20036;-74
2023/08/14 09:16:00;;;;;;;3.97;2.67;;;34.80;43.40;;;;;;5052145;28;20064;-75
2023/08/14 09:18:26;;;;;;;7.13;3.38;;;35.00;42.60;;;;;;5051792;28;20021;-75
2023/08/14 09:20:52;;;;;;;6.05;2.92;;;;;;;;;;5052388;28;20018;-75
2023/08/14 09:23:18;;;;;;;8.88;2.92;;;33.10;45.00;;;;;;5052226;28;20044;-75
2023/08/14 09:25:46;;;;;;;6.97;3.38;;;32.60;46.70;;;;;;5052404;28;20024;-75
2023/08/14 09:28:13;;;;;;;5.57;3.17;;;32.00;47.80;;;;;;5051044;28;20110;-75
2023/08/14 09:30:40;;;;;;;6.68;3.50;;;31.70;47.90;;;;;;5052671;28;20484;-75
2023/08/14 09:33:08;;;;;;;6.10;3.42;;;31.90;49.10;;;;;;5052343;28;20032;-75
2023/08/14 09:35:34;;;;;;;5.93;3.20;;;32.50;47.40;;;;;;5052011;28;20032;-75
2023/08/14 09:37:59;;;;;;;3.33;2.83;;;33.60;46.10;;;;;;5051459;28;20488;-74
2023/08/14 09:40:25;;;;;;;6.57;3.20;;;34.10;44.30;;;;;;5051867;28;20017;-75
2023/08/14 09:42:51;;;;;;;6.43;3.47;;;34.40;43.10;;;;;;5052353;28;20364;-75
2023/08/14 09:45:23;;;;;;;6.47;2.83;;;34.40;42.50;;;;;;5054149;28;20025;-75
2023/08/14 09:47:49;;;;;;;4.22;2.90;;;34.50;43.00;;;;;;5051536;28;20044;-75
2023/08/14 09:50:15;;;;;;;6.40;3.20;;;35.70;41.90;;;;;;5051697;28;20025;-74
2023/08/14 09:52:42;;;;;;;8.05;3.50;;;35.50;41.30;;;;;;5051833;28;20036;-75
2023/08/14 09:55:10;;;;;;;9.40;3.53;;;35.10;41.80;;;;;;5052690;28;20075;-74
2023/08/14 09:57:41;;;;;;;5.40;3.20;;;34.60;41.90;;;;;;5051488;28;20105;-74
2023/08/14 10:00:07;;;;;;;;;;;34.20;43.50;;;;;;5053210;28;20103;-75
2023/08/14 10:02:34;;;;;;;10.75;3.45;;;34.70;44.70;;;;;;5051122;28;19959;-74
2023/08/14 10:05:02;;;;;;;5.53;2.97;;;34.90;42.30;;;;;;5051330;28;20035;-76
2023/08/14 10:07:28;;;;;;;9.20;2.95;;;34.90;42.60;;;;;;5050333;28;20063;-75
2023/08/14 10:09:56;;;;;;;6.03;2.70;;;34.80;42.30;;;;;;5051069;28;20025;-75
2023/08/14 10:12:29;;;;;;;5.55;3.10;;;34.20;42.30;;;;;;5050965;28;20095;-75
2023/08/14 10:15:10;;;;;;;7.97;3.38;;;33.80;43.30;;;;;;5054116;28;20093;-75
2023/08/14 10:17:43;;;;;;;4.20;3.00;;;33.60;44.70;;;;;;5050373;28;20524;-75
2023/08/14 10:20:15;;;;;;;6.35;3.15;;;34.00;43.00;;;;;;5051318;28;20029;-74
2023/08/14 10:22:41;;;;;;;6.20;2.97;;;34.20;43.00;;;;;;5051128;28;20029;-75
2023/08/14 10:25:08;;;;;;;6.45;3.85;;;33.40;44.10;;;;;;5055626;28;20100;-74
2023/08/14 10:27:34;;;;;;;7.90;3.33;;;33.30;45.30;;;;;;5050472;28;20017;-75
2023/08/14 10:30:01;;;;;;;7.35;3.45;;;33.40;44.10;;;;;;5049750;28;20036;-74
2023/08/14 10:32:28;;;;;;;6.97;3.65;;;33.20;44.80;;;;;;5049998;28;20492;-72
2023/08/14 10:34:55;;;;;;;3.50;3.08;;;32.90;45.20;;;;;;5049801;28;20033;-74
2023/08/14 10:37:40;;;;;;;7.38;3.70;;;33.00;45.60;;;;;;5050859;28;20087;-74
2023/08/14 10:40:18;;;;;;;8.93;3.97;;;33.00;44.90;;;;;;5051155;28;20024;-73
2023/08/14 10:42:52;;;;;;;3.55;2.80;;;32.90;45.50;;;;;;5050762;28;20053;-75
2023/08/14 10:45:21;;;;;;;5.93;3.67;;;32.90;45.60;;;;;;5050920;28;20033;-75
2023/08/14 10:47:47;;;;;;;6.32;3.08;;;32.80;45.80;;;;;;5050675;28;20029;-75
2023/08/14 10:50:23;;;;;;;6.32;2.92;;;32.80;46.10;;;;;;5050981;28;20025;-75
2023/08/14 10:52:51;;;;;;;5.80;3.20;;;32.50;46.90;;;;;;5050856;28;20044;-74
2023/08/14 10:55:22;;;;;;;4.65;3.05;;;32.30;46.90;;;;;;5050392;28;20024;-75
2023/08/14 10:57:48;;;;;;;4.75;3.13;;;32.40;46.90;;;;;;5053103;28;20090;-75
2023/08/14 11:00:22;;;;;;;7.00;3.47;;;32.30;47.60;;;;;;5053016;28;20024;-75
2023/08/14 11:03:06;;;;;;;5.72;3.53;;;;;;;;;;5055896;28;20088;-75
2023/08/14 11:05:39;;;;;;;4.35;2.88;;;;;;;;;;5056495;28;20063;-75
2023/08/14 11:08:06;;;;;;;7.72;3.35;;;;;;;;;;5054457;28;20036;-74
2023/08/14 11:10:34;;;;;;;11.45;3.33;;;;;;;;;;5056233;28;20472;-75
2023/08/14 11:13:00;;;;;;;5.07;2.90;;;;;;;;;;5051944;28;20472;-74
2023/08/14 11:15:26;;;;;;;5.70;3.30;;;;;;;;;;5050970;28;20029;-75
2023/08/14 11:17:52;;;;;;;4.30;3.05;;;;;;;;;;5049738;28;20025;-74
2023/08/14 11:20:19;;;;;;;8.27;3.33;;;;;;;;;;5050597;28;20036;-74
2023/08/14 11:22:45;;;;;;;5.53;3.60;;;;;;;;;;5050283;28;20033;-75
2023/08/14 11:25:15;;;;;;;4.75;3.40;;;;;;;;;;5050651;28;20052;-74
2023/08/14 11:27:41;;;;;;;5.30;3.08;;;;;;;;;;5049672;28;20036;-75
2023/08/14 11:30:07;;;;;;;9.10;3.33;;;;;;;;;;5053124;28;20028;-74
2023/08/14 11:32:33;;;;;;;7.22;3.15;;;;;;;;;;5054063;28;20028;-73
2023/08/14 11:34:59;;;;;;;5.93;3.58;;;;;;;;;;5054045;28;20538;-74
2023/08/14 11:37:25;;;;;;;5.85;3.88;;;;;;;;;;5053076;28;20068;-75
2023/08/14 11:39:51;;;;;;;11.95;4.05;;;;;;;;;;5054008;28;20113;-73
2023/08/14 11:42:18;;;;;;;8.00;3.70;;;;;;;;;;5054090;28;20519;-74
2023/08/14 11:44:44;;;;;;;5.75;3.75;;;;;;;;;;5054200;28;20032;-74
2023/08/14 11:47:11;;;;;;;3.85;3.55;;;;;;;;;;5052906;28;20021;-74
2023/08/14 11:49:40;;;;;;;7.07;4.18;;;;;;;;;;5053812;28;20112;-74
2023/08/14 11:52:06;;;;;;;4.85;3.63;;;;;;;;;;5053579;28;20100;-73
2023/08/14 11:54:32;;;;;;;6.65;3.90;;;;;;;;;;5051305;28;20017;-74
2023/08/14 11:57:02;;;;;;;8.68;3.75;;;;;;;;;;5053226;28;20053;-73
2023/08/14 11:59:28;;;;;;;10.27;4.00;;;;;;;;;;5053796;28;20032;-75
2023/08/14 12:01:57;;;;;;;9.25;4.32;;;;;;;;;;5053838;28;20107;-75
2023/08/14 12:04:23;;;;;;;9.52;4.25;;;;;;;;;;5053736;28;20078;-76
2023/08/14 12:06:49;;;;;;;7.47;3.83;;;;;;;;;;5053319;28;20025;-75
2023/08/14 12:09:15;;;;;;;7.25;4.05;;;;;;;;;;5051591;28;20028;-76
2023/08/14 12:11:41;;;;;;;6.28;3.75;;;;;;;;;;5053531;28;20029;-75
2023/08/14 12:14:08;;;;;;;5.15;3.65;;;;;;;;;;5053627;28;20113;-75
2023/08/14 12:16:38;;;;;;;4.80;3.78;;;;;;;;;;5052968;28;20116;-76
2023/08/14 12:19:06;;;;;;;9.52;3.92;;;;;;;;;;5051737;28;20047;-75
2023/08/14 12:21:32;;;;;;;4.28;3.42;;;;;;;;;;5052103;28;20025;-75
2023/08/14 12:23:58;;;;;;;5.47;3.70;;;;;;;;;;5053311;28;20024;-75
2023/08/14 12:26:24;;;;;;;3.97;3.13;;;;;;;;;;5052096;28;20035;-75
2023/08/14 12:28:50;;;;;;;6.90;3.45;;;;;;;;;;5052749;28;20488;-75
2023/08/14 12:31:17;;;;;;;4.65;3.78;;;;;;;;;;5051842;28;20056;-75
2023/08/14 12:33:43;;;;;;;8.00;3.80;;;;;;;;;;5052816;28;20111;-74
2023/08/14 12:36:12;;;;;;;6.75;4.45;;;;;;;;;;5051881;28;20032;-74
2023/08/14 12:38:39;;;;;;;7.13;3.58;;;;;;;;;;5052427;28;20025;-75
2023/08/14 12:41:05;;;;;;;9.43;3.88;;;;;;;;;;5051989;28;20029;-74
2023/08/14 12:43:32;;;;;;;7.63;3.70;;;;;;;;;;5052980;28;20051;-74
2023/08/14 12:45:58;;;;;;;5.40;3.60;;;;;;;;;;5053281;28;20044;-75
2023/08/14 12:48:24;;;;;;;5.85;3.13;;;;;;;;;;5052118;28;20108;-74
2023/08/14 12:50:50;;;;;;;5.68;3.20;;;;;;;;;;5052871;28;20104;-74
2023/08/14 12:53:16;;;;;;;5.47;3.47;;;;;;;;;;5052854;28;20448;-74
2023/08/14 12:55:44;;;;;;;6.45;3.63;;;;;;;;;;5051645;28;20025;-74
2023/08/14 12:58:10;;;;;;;7.38;3.78;;;;;;;;;;5051475;28;20021;-74
2023/08/14 13:00:36;;;;;;;5.03;3.15;;;;;;;;;;5052694;28;20028;-74
2023/08/14 13:03:02;;;;;;;10.52;3.95;;;;;;;;;;5050968;28;20481;-74
2023/08/14 13:05:28;;;;;;;4.28;3.47;;;;;;;;;;5052443;28;20416;-75
2023/08/14 13:07:54;;;;;;;7.25;3.58;;;;;;;;;;5052089;28;20031;-75
2023/08/14 13:10:20;;;;;;;7.18;3.42;;;;;;;;;;5052513;28;20028;-73
2023/08/14 13:12:46;;;;;;;11.57;3.78;;;;;;;;;;5052307;28;20040;-74
2023/08/14 13:15:12;;;;;;;6.53;4.30;;;;;;;;;;5052572;28;20405;-74
2023/08/14 13:17:38;;;;;;;11.77;4.60;;;;;;;;;;5051798;28;20028;-74
2023/08/14 13:20:05;;;;;;;6.38;3.97;;;;;;;;;;5052910;28;20017;-74
2023/08/14 13:22:31;;;;;;;4.70;3.80;;;;;;;;;;5052235;28;20457;-72
2023/08/14 13:24:57;;;;;;;8.45;3.60;;;;;;;;;;5054570;28;20029;-75
2023/08/14 13:27:23;;;;;;;9.07;4.35;;;;;;;;;;5052628;28;20021;-75
2023/08/14 13:29:49;;;;;;;6.68;4.30;;;;;;;;;;5052284;28;20040;-75
2023/08/14 13:32:15;;;;;;;7.53;4.88;;;;;;;;;;5053182;28;20033;-74
2023/08/14 13:34:41;;;;;;;9.52;4.55;;;;;;;;;;5052076;28;20028;-75
2023/08/14 13:37:07;;;;;;;4.63;4.15;;;;;;;;;;5052114;28;20025;-74
2023/08/14 13:39:33;;;;;;;6.70;4.47;;;;;;;;;;5056956;28;20025;-75
2023/08/14 13:41:59;;;;;;;5.43;4.38;;;;;;;;;;5056791;28;20075;-74
2023/08/14 13:44:25;;;;;;;3.85;3.45;;;;;;;;;;5055425;28;20028;-75
2023/08/14 13:46:51;;;;;;;5.75;4.22;;;;;;;;;;5052613;28;20033;-75
2023/08/14 13:49:17;;;;;;;8.93;5.32;;;;;;;;;;5052628;28;20025;-76
2023/08/14 13:51:44;;;;;;;13.23;4.90;;;;;;;;;;5051460;28;20029;-76
2023/08/14 13:54:10;;;;;;;6.38;4.55;;;;;;;;;;5051383;28;20029;-75
2023/08/14 13:56:36;;;;;;;7.10;4.30;;;;;;;;;;5051456;28;20025;-74
2023/08/14 13:59:03;;;;;;;9.45;4.43;;;;;;;;;;5050217;28;20017;-75
2023/08/14 14:01:29;;;;;;;10.60;5.22;;;;;;;;;;5052669;28;20096;-76